sensor_id;sensor_type;location;lat;lon;timestamp;pressure;altitude;pressure_sealevel;temperature;humidity
9935;BME280;5006;41.828;23.478;2023-12-28T00:00:17;91313.19;;;5.88;100.00
9935;BME280;5006;41.828;23.478;2023-12-28T00:01:23;91311.41;;;5.92;100.00
9935;BME280;5006;41.828;23.478;2023-12-28T00:02:28;91314.16;;;5.96;100.00
9935;BME280;5006;41.828;23.478;2023-12-28T00:03:34;91308.84;;;5.84;100.00
9935;BME280;5006;41.828;23.478;2023-12-28T00:04:39;91311.06;;;5.94;100.00
9935;BME280;5006;41.828;23.478;2023-12-28T00:05:46;91309.94;;;5.71;100.00
9935;BME280;5006;41.828;23.478;2023-12-28T00:06:51;91310.41;;;5.85;100.00
9935;BME280;5006;41.828;23.478;2023-12-28T00:07:58;91312.84;;;5.90;100.00
9935;BME280;5006;41.828;23.478;2023-12-28T00:09:03;91315.28;;;5.95;100.00
9935;BME280;5006;41.828;23.478;2023-12-28T00:10:11;91320.53;;;5.47;100.00
9935;BME280;5006;41.828;23.478;2023-12-28T00:11:16;91318.25;;;5.69;100.00
9935;BME280;5006;41.828;23.478;2023-12-28T00:12:24;91325.69;;;5.64;100.00
9935;BME280;5006;41.828;23.478;2023-12-28T00:13:29;91324.59;;;5.77;100.00
9935;BME280;5006;41.828;23.478;2023-12-28T00:14:35;91326.06;;;5.86;100.00
9935;BME280;5006;41.828;23.478;2023-12-28T00:15:40;91331.44;;;5.66;100.00
9935;BME280;5006;41.828;23.478;2023-12-28T00:16:47;91327.97;;;5.41;100.00
9935;BME280;5006;41.828;23.478;2023-12-28T00:17:52;91332.63;;;5.44;100.00
9935;BME280;5006;41.828;23.478;2023-12-28T00:18:58;91333.41;;;5.57;100.00
9935;BME280;5006;41.828;23.478;2023-12-28T00:20:04;91340.19;;;5.66;100.00
9935;BME280;5006;41.828;23.478;2023-12-28T00:21:11;91339.13;;;5.35;100.00
9935;BME280;5006;41.828;23.478;2023-12-28T00:22:17;91341.41;;;5.57;100.00
9935;BME280;5006;41.828;23.478;2023-12-28T00:23:23;91340.28;;;5.46;100.00
9935;BME280;5006;41.828;23.478;2023-12-28T00:24:28;91346.00;;;5.36;100.00
9935;BME280;5006;41.828;23.478;2023-12-28T00:25:36;91338.66;;;5.21;100.00
9935;BME280;5006;41.828;23.478;2023-12-28T00:26:41;91345.50;;;5.10;100.00
9935;BME280;5006;41.828;23.478;2023-12-28T00:27:49;91343.50;;;5.51;100.00
9935;BME280;5006;41.828;23.478;2023-12-28T00:28:54;91345.59;;;5.46;100.00
9935;BME280;5006;41.828;23.478;2023-12-28T00:30:01;91349.13;;;5.38;100.00
9935;BME280;5006;41.828;23.478;2023-12-28T00:31:09;91344.91;;;5.25;100.00
9935;BME280;5006;41.828;23.478;2023-12-28T00:32:15;91346.44;;;5.26;100.00
9935;BME280;5006;41.828;23.478;2023-12-28T00:33:20;91349.88;;;5.26;100.00
9935;BME280;5006;41.828;23.478;2023-12-28T00:34:26;91346.97;;;5.64;100.00
9935;BME280;5006;41.828;23.478;2023-12-28T00:35:31;91345.28;;;5.59;100.00
9935;BME280;5006;41.828;23.478;2023-12-28T00:36:37;91348.44;;;5.29;100.00
9935;BME280;5006;41.828;23.478;2023-12-28T00:37:42;91345.34;;;5.27;100.00
9935;BME280;5006;41.828;23.478;2023-12-28T00:38:49;91346.50;;;5.50;100.00
9935;BME280;5006;41.828;23.478;2023-12-28T00:39:54;91354.25;;;5.43;100.00
9935;BME280;5006;41.828;23.478;2023-12-28T00:41:02;91355.56;;;5.49;100.00
9935;BME280;5006;41.828;23.478;2023-12-28T00:42:07;91356.47;;;5.53;100.00
9935;BME280;5006;41.828;23.478;2023-12-28T00:43:13;91351.19;;;5.65;100.00
9935;BME280;5006;41.828;23.478;2023-12-28T00:44:18;91361.44;;;5.42;100.00
9935;BME280;5006;41.828;23.478;2023-12-28T00:45:24;91359.16;;;5.65;100.00
9935;BME280;5006;41.828;23.478;2023-12-28T00:46:30;91354.28;;;5.67;100.00
9935;BME280;5006;41.828;23.478;2023-12-28T00:47:36;91354.06;;;5.72;100.00
9935;BME280;5006;41.828;23.478;2023-12-28T00:48:41;91363.25;;;5.62;100.00
9935;BME280;5006;41.828;23.478;2023-12-28T00:49:47;91363.47;;;5.57;100.00
9935;BME280;5006;41.828;23.478;2023-12-28T00:50:53;91370.75;;;5.48;100.00
9935;BME280;5006;41.828;23.478;2023-12-28T00:52:04;91365.44;;;5.48;100.00
9935;BME280;5006;41.828;23.478;2023-12-28T00:53:09;91357.69;;;5.67;100.00
9935;BME280;5006;41.828;23.478;2023-12-28T00:54:15;91363.13;;;5.59;100.00
9935;BME280;5006;41.828;23.478;2023-12-28T00:55:20;91363.50;;;5.69;100.00
9935;BME280;5006;41.828;23.478;2023-12-28T00:56:27;91367.44;;;5.51;100.00
9935;BME280;5006;41.828;23.478;2023-12-28T00:57:32;91369.81;;;5.65;100.00
9935;BME280;5006;41.828;23.478;2023-12-28T00:58:39;91365.25;;;5.65;100.00
9935;BME280;5006;41.828;23.478;2023-12-28T00:59:45;91361.75;;;5.97;100.00
9935;BME280;5006;41.828;23.478;2023-12-28T01:00:50;91364.53;;;5.89;100.00
9935;BME280;5006;41.828;23.478;2023-12-28T01:02:00;91363.09;;;5.91;100.00
9935;BME280;5006;41.828;23.478;2023-12-28T01:03:05;91362.09;;;5.96;100.00
9935;BME280;5006;41.828;23.478;2023-12-28T01:04:11;91360.09;;;5.93;100.00
9935;BME280;5006;41.828;23.478;2023-12-28T01:05:17;91365.31;;;6.13;100.00
9935;BME280;5006;41.828;23.478;2023-12-28T01:06:25;91360.88;;;6.17;100.00
9935;BME280;5006;41.828;23.478;2023-12-28T01:07:33;91365.44;;;6.17;100.00
9935;BME280;5006;41.828;23.478;2023-12-28T01:08:40;91366.31;;;6.21;100.00
9935;BME280;5006;41.828;23.478;2023-12-28T01:09:45;91362.16;;;5.75;100.00
9935;BME280;5006;41.828;23.478;2023-12-28T01:10:51;91364.66;;;5.48;100.00
9935;BME280;5006;41.828;23.478;2023-12-28T01:11:58;91354.66;;;5.89;100.00
9935;BME280;5006;41.828;23.478;2023-12-28T01:13:04;91354.22;;;5.99;100.00
9935;BME280;5006;41.828;23.478;2023-12-28T01:14:10;91359.66;;;6.03;100.00
9935;BME280;5006;41.828;23.478;2023-12-28T01:15:17;91353.91;;;5.89;100.00
9935;BME280;5006;41.828;23.478;2023-12-28T01:16:25;91363.53;;;5.81;100.00
9935;BME280;5006;41.828;23.478;2023-12-28T01:17:32;91367.22;;;5.89;100.00
9935;BME280;5006;41.828;23.478;2023-12-28T01:18:37;91364.09;;;5.30;100.00
9935;BME280;5006;41.828;23.478;2023-12-28T01:19:44;91369.81;;;5.20;100.00
9935;BME280;5006;41.828;23.478;2023-12-28T01:20:49;91365.38;;;5.69;100.00
9935;BME280;5006;41.828;23.478;2023-12-28T01:21:55;91358.69;;;5.51;100.00
9935;BME280;5006;41.828;23.478;2023-12-28T01:23:00;91356.50;;;5.77;100.00
9935;BME280;5006;41.828;23.478;2023-12-28T01:24:06;91364.31;;;5.82;100.00
9935;BME280;5006;41.828;23.478;2023-12-28T01:25:11;91359.09;;;5.85;100.00
9935;BME280;5006;41.828;23.478;2023-12-28T01:26:17;91368.88;;;5.81;100.00
9935;BME280;5006;41.828;23.478;2023-12-28T01:27:24;91369.69;;;5.61;100.00
9935;BME280;5006;41.828;23.478;2023-12-28T01:28:30;91366.22;;;5.49;100.00
9935;BME280;5006;41.828;23.478;2023-12-28T01:29:35;91362.09;;;5.84;100.00
9935;BME280;5006;41.828;23.478;2023-12-28T01:30:41;91365.41;;;5.81;100.00
9935;BME280;5006;41.828;23.478;2023-12-28T01:31:49;91360.31;;;6.12;100.00
9935;BME280;5006;41.828;23.478;2023-12-28T01:32:55;91363.28;;;5.74;100.00
9935;BME280;5006;41.828;23.478;2023-12-28T01:34:00;91361.75;;;5.97;100.00
9935;BME280;5006;41.828;23.478;2023-12-28T01:35:07;91365.88;;;6.07;100.00
9935;BME280;5006;41.828;23.478;2023-12-28T01:36:17;91359.53;;;6.11;100.00
9935;BME280;5006;41.828;23.478;2023-12-28T01:37:23;91367.97;;;6.13;100.00
9935;BME280;5006;41.828;23.478;2023-12-28T01:38:29;91358.94;;;5.70;100.00
9935;BME280;5006;41.828;23.478;2023-12-28T01:39:36;91361.81;;;5.53;100.00
9935;BME280;5006;41.828;23.478;2023-12-28T01:40:44;91363.38;;;5.78;100.00
9935;BME280;5006;41.828;23.478;2023-12-28T01:41:49;91366.25;;;5.73;100.00
9935;BME280;5006;41.828;23.478;2023-12-28T01:42:56;91361.56;;;5.46;100.00
9935;BME280;5006;41.828;23.478;2023-12-28T01:44:02;91359.91;;;5.65;100.00
9935;BME280;5006;41.828;23.478;2023-12-28T01:45:09;91371.47;;;5.69;100.00
9935;BME280;5006;41.828;23.478;2023-12-28T01:46:17;91367.13;;;5.53;100.00
9935;BME280;5006;41.828;23.478;2023-12-28T01:47:25;91371.75;;;5.44;100.00
9935;BME280;5006;41.828;23.478;2023-12-28T01:48:30;91368.78;;;5.45;100.00
9935;BME280;5006;41.828;23.478;2023-12-28T01:49:37;91363.53;;;5.49;100.00
9935;BME280;5006;41.828;23.478;2023-12-28T01:50:42;91363.75;;;5.32;100.00
9935;BME280;5006;41.828;23.478;2023-12-28T01:51:48;91374.34;;;5.64;100.00
9935;BME280;5006;41.828;23.478;2023-12-28T01:52:55;91371.53;;;5.81;100.00
9935;BME280;5006;41.828;23.478;2023-12-28T01:54:02;91365.84;;;5.83;100.00
9935;BME280;5006;41.828;23.478;2023-12-28T01:55:08;91376.44;;;5.59;100.00
9935;BME280;5006;41.828;23.478;2023-12-28T01:56:15;91369.31;;;5.39;100.00
9935;BME280;5006;41.828;23.478;2023-12-28T01:57:22;91367.16;;;5.77;100.00
9935;BME280;5006;41.828;23.478;2023-12-28T01:58:33;91370.13;;;5.63;100.00
9935;BME280;5006;41.828;23.478;2023-12-28T01:59:41;91369.56;;;5.58;100.00
9935;BME280;5006;41.828;23.478;2023-12-28T02:00:48;91376.81;;;5.69;100.00
9935;BME280;5006;41.828;23.478;2023-12-28T02:01:54;91371.41;;;5.90;100.00
9935;BME280;5006;41.828;23.478;2023-12-28T02:03:01;91369.25;;;5.71;100.00
9935;BME280;5006;41.828;23.478;2023-12-28T02:04:06;91375.28;;;5.48;100.00
9935;BME280;5006;41.828;23.478;2023-12-28T02:05:14;91365.44;;;5.48;100.00
9935;BME280;5006;41.828;23.478;2023-12-28T02:06:22;91368.34;;;5.67;100.00
9935;BME280;5006;41.828;23.478;2023-12-28T02:07:30;91369.56;;;5.58;100.00
9935;BME280;5006;41.828;23.478;2023-12-28T02:08:38;91361.53;;;5.34;100.00
9935;BME280;5006;41.828;23.478;2023-12-28T02:09:44;91362.47;;;5.74;100.00
9935;BME280;5006;41.828;23.478;2023-12-28T02:10:49;91369.88;;;5.44;100.00
9935;BME280;5006;41.828;23.478;2023-12-28T02:11:55;91372.13;;;5.66;100.00
9935;BME280;5006;41.828;23.478;2023-12-28T02:13:01;91372.94;;;5.79;100.00
9935;BME280;5006;41.828;23.478;2023-12-28T02:14:08;91367.50;;;5.31;100.00
9935;BME280;5006;41.828;23.478;2023-12-28T02:15:14;91372.97;;;5.46;100.00
9935;BME280;5006;41.828;23.478;2023-12-28T02:16:33;91368.94;;;5.28;100.00
9935;BME280;5006;41.828;23.478;2023-12-28T02:17:45;91360.34;;;5.43;100.00
9935;BME280;5006;41.828;23.478;2023-12-28T02:18:54;91360.22;;;5.40;100.00
9935;BME280;5006;41.828;23.478;2023-12-28T02:20:02;91358.56;;;5.47;100.00
9935;BME280;5006;41.828;23.478;2023-12-28T02:21:12;91361.75;;;5.29;100.00
9935;BME280;5006;41.828;23.478;2023-12-28T02:22:21;91356.28;;;5.25;100.00
9935;BME280;5006;41.828;23.478;2023-12-28T02:23:28;91358.41;;;5.32;100.00
9935;BME280;5006;41.828;23.478;2023-12-28T02:25:50;91347.38;;;5.42;100.00
9935;BME280;5006;41.828;23.478;2023-12-28T02:26:56;91348.25;;;5.46;100.00
9935;BME280;5006;41.828;23.478;2023-12-28T02:28:02;91348.88;;;5.31;100.00
9935;BME280;5006;41.828;23.478;2023-12-28T02:29:09;91340.69;;;5.36;100.00
9935;BME280;5006;41.828;23.478;2023-12-28T02:30:16;91345.38;;;5.39;100.00
9935;BME280;5006;41.828;23.478;2023-12-28T02:31:28;91337.81;;;5.29;100.00
9935;BME280;5006;41.828;23.478;2023-12-28T02:32:42;91342.91;;;5.34;100.00
9935;BME280;5006;41.828;23.478;2023-12-28T02:33:53;91339.38;;;5.42;100.00
9935;BME280;5006;41.828;23.478;2023-12-28T02:35:06;91345.56;;;5.34;100.00
9935;BME280;5006;41.828;23.478;2023-12-28T02:36:18;91341.34;;;5.33;100.00
9935;BME280;5006;41.828;23.478;2023-12-28T02:37:28;91347.59;;;5.61;100.00
9935;BME280;5006;41.828;23.478;2023-12-28T02:38:38;91349.84;;;5.71;100.00
9935;BME280;5006;41.828;23.478;2023-12-28T02:39:44;91344.44;;;5.79;100.00
9935;BME280;5006;41.828;23.478;2023-12-28T02:40:54;91344.31;;;5.64;100.00
9935;BME280;5006;41.828;23.478;2023-12-28T02:42:01;91343.75;;;5.58;100.00
9935;BME280;5006;41.828;23.478;2023-12-28T02:43:08;91351.38;;;5.15;100.00
9935;BME280;5006;41.828;23.478;2023-12-28T02:44:14;91348.88;;;5.31;100.00
9935;BME280;5006;41.828;23.478;2023-12-28T02:45:21;91348.50;;;5.08;100.00
9935;BME280;5006;41.828;23.478;2023-12-28T02:46:27;91353.97;;;5.36;100.00
9935;BME280;5006;41.828;23.478;2023-12-28T02:47:34;91351.28;;;5.68;100.00
9935;BME280;5006;41.828;23.478;2023-12-28T02:48:39;91354.81;;;5.60;100.00
9935;BME280;5006;41.828;23.478;2023-12-28T02:49:46;91360.88;;;5.49;100.00
9935;BME280;5006;41.828;23.478;2023-12-28T02:50:51;91358.47;;;5.56;100.00
9935;BME280;5006;41.828;23.478;2023-12-28T02:51:57;91365.59;;;5.64;100.00
9935;BME280;5006;41.828;23.478;2023-12-28T02:53:03;91360.44;;;5.02;100.00
9935;BME280;5006;41.828;23.478;2023-12-28T02:54:10;91362.06;;;4.95;100.00
9935;BME280;5006;41.828;23.478;2023-12-28T02:55:17;91363.38;;;5.21;100.00
9935;BME280;5006;41.828;23.478;2023-12-28T02:56:25;91358.38;;;5.20;100.00
9935;BME280;5006;41.828;23.478;2023-12-28T02:57:30;91357.63;;;5.19;100.00
9935;BME280;5006;41.828;23.478;2023-12-28T02:58:36;91357.66;;;4.99;100.00
9935;BME280;5006;41.828;23.478;2023-12-28T02:59:42;91357.28;;;4.88;100.00
9935;BME280;5006;41.828;23.478;2023-12-28T03:00:49;91352.59;;;5.06;100.00
9935;BME280;5006;41.828;23.478;2023-12-28T03:01:54;91356.75;;;4.95;100.00
9935;BME280;5006;41.828;23.478;2023-12-28T03:03:00;91346.84;;;5.16;100.00
9935;BME280;5006;41.828;23.478;2023-12-28T03:04:06;91360.78;;;5.01;100.00
9935;BME280;5006;41.828;23.478;2023-12-28T03:05:15;91359.84;;;5.17;100.00
9935;BME280;5006;41.828;23.478;2023-12-28T03:06:20;91357.88;;;5.38;100.00
9935;BME280;5006;41.828;23.478;2023-12-28T03:07:27;91369.88;;;5.44;100.00
9935;BME280;5006;41.828;23.478;2023-12-28T03:08:32;91361.56;;;5.13;100.00
9935;BME280;5006;41.828;23.478;2023-12-28T03:09:37;91361.75;;;5.29;100.00
9935;BME280;5006;41.828;23.478;2023-12-28T03:10:45;91359.69;;;5.46;100.00
9935;BME280;5006;41.828;23.478;2023-12-28T03:11:52;91360.16;;;5.16;100.00
9935;BME280;5006;41.828;23.478;2023-12-28T03:12:59;91354.13;;;5.07;100.00
9935;BME280;5006;41.828;23.478;2023-12-28T03:14:05;91352.66;;;4.97;100.00
9935;BME280;5006;41.828;23.478;2023-12-28T03:15:12;91356.38;;;5.17;100.00
9935;BME280;5006;41.828;23.478;2023-12-28T03:16:18;91357.38;;;5.12;100.00
9935;BME280;5006;41.828;23.478;2023-12-28T03:17:25;91348.88;;;5.31;100.00
9935;BME280;5006;41.828;23.478;2023-12-28T03:18:31;91348.69;;;5.03;100.00
9935;BME280;5006;41.828;23.478;2023-12-28T03:19:38;91348.72;;;5.15;100.00
9935;BME280;5006;41.828;23.478;2023-12-28T03:20:44;91348.22;;;5.34;100.00
9935;BME280;5006;41.828;23.478;2023-12-28T03:21:50;91352.16;;;5.48;100.00
9935;BME280;5006;41.828;23.478;2023-12-28T03:22:57;91344.38;;;5.55;100.00
9935;BME280;5006;41.828;23.478;2023-12-28T03:24:04;91356.25;;;5.58;100.00
9935;BME280;5006;41.828;23.478;2023-12-28T03:25:09;91348.94;;;5.55;100.00
9935;BME280;5006;41.828;23.478;2023-12-28T03:26:15;91353.47;;;5.54;100.00
9935;BME280;5006;41.828;23.478;2023-12-28T03:27:23;91358.91;;;5.58;100.00
9935;BME280;5006;41.828;23.478;2023-12-28T03:28:29;91357.28;;;4.88;100.00
9935;BME280;5006;41.828;23.478;2023-12-28T03:29:36;91357.00;;;4.49;100.00
9935;BME280;5006;41.828;23.478;2023-12-28T03:30:42;91358.84;;;4.69;100.00
9935;BME280;5006;41.828;23.478;2023-12-28T03:31:47;91362.31;;;5.02;100.00
9935;BME280;5006;41.828;23.478;2023-12-28T03:32:54;91363.97;;;4.74;100.00
9935;BME280;5006;41.828;23.478;2023-12-28T03:33:59;91360.66;;;4.77;100.00
9935;BME280;5006;41.828;23.478;2023-12-28T03:35:06;91355.81;;;4.79;100.00
9935;BME280;5006;41.828;23.478;2023-12-28T03:36:17;91359.00;;;5.37;100.00
9935;BME280;5006;41.828;23.478;2023-12-28T03:37:24;91350.63;;;4.82;100.00
9935;BME280;5006;41.828;23.478;2023-12-28T03:38:30;91350.81;;;4.77;100.00
9935;BME280;5006;41.828;23.478;2023-12-28T03:39:37;91348.81;;;5.07;100.00
9935;BME280;5006;41.828;23.478;2023-12-28T03:40:42;91340.88;;;5.19;100.00
9935;BME280;5006;41.828;23.478;2023-12-28T03:41:51;91349.16;;;4.73;100.00
9935;BME280;5006;41.828;23.478;2023-12-28T03:42:59;91347.25;;;5.06;100.00
9935;BME280;5006;41.828;23.478;2023-12-28T03:44:05;91349.88;;;5.26;100.00
9935;BME280;5006;41.828;23.478;2023-12-28T03:45:11;91350.00;;;5.30;100.00
9935;BME280;5006;41.828;23.478;2023-12-28T03:46:19;91352.34;;;5.31;100.00
9935;BME280;5006;41.828;23.478;2023-12-28T03:47:24;91354.38;;;5.14;100.00
9935;BME280;5006;41.828;23.478;2023-12-28T03:48:31;91353.63;;;4.93;100.00
9935;BME280;5006;41.828;23.478;2023-12-28T03:49:36;91349.19;;;5.17;100.00
9935;BME280;5006;41.828;23.478;2023-12-28T03:50:45;91351.56;;;4.98;100.00
9935;BME280;5006;41.828;23.478;2023-12-28T03:51:50;91346.53;;;5.17;100.00
9935;BME280;5006;41.828;23.478;2023-12-28T03:52:57;91350.84;;;5.22;100.00
9935;BME280;5006;41.828;23.478;2023-12-28T03:54:03;91348.31;;;4.93;100.00
9935;BME280;5006;41.828;23.478;2023-12-28T03:55:11;91356.59;;;5.12;100.00
9935;BME280;5006;41.828;23.478;2023-12-28T03:56:21;91356.25;;;4.81;100.00
9935;BME280;5006;41.828;23.478;2023-12-28T03:57:27;91354.03;;;5.15;100.00
9935;BME280;5006;41.828;23.478;2023-12-28T03:58:35;91351.03;;;5.49;100.00
9935;BME280;5006;41.828;23.478;2023-12-28T03:59:41;91355.63;;;5.28;100.00
9935;BME280;5006;41.828;23.478;2023-12-28T04:00:47;91356.91;;;5.55;100.00
9935;BME280;5006;41.828;23.478;2023-12-28T04:01:53;91353.72;;;5.61;100.00
9935;BME280;5006;41.828;23.478;2023-12-28T04:02:58;91347.50;;;5.57;100.00
9935;BME280;5006;41.828;23.478;2023-12-28T04:04:05;91349.72;;;5.67;100.00
9935;BME280;5006;41.828;23.478;2023-12-28T04:05:10;91356.72;;;5.72;100.00
9935;BME280;5006;41.828;23.478;2023-12-28T04:06:16;91347.59;;;5.49;100.00
9935;BME280;5006;41.828;23.478;2023-12-28T04:07:21;91354.31;;;5.22;100.00
9935;BME280;5006;41.828;23.478;2023-12-28T04:08:27;91351.31;;;5.24;100.00
9935;BME280;5006;41.828;23.478;2023-12-28T04:09:33;91348.06;;;5.06;100.00
9935;BME280;5006;41.828;23.478;2023-12-28T04:10:39;91343.34;;;5.24;100.00
9935;BME280;5006;41.828;23.478;2023-12-28T04:11:45;91349.94;;;5.50;100.00
9935;BME280;5006;41.828;23.478;2023-12-28T04:12:52;91350.44;;;5.32;100.00
9935;BME280;5006;41.828;23.478;2023-12-28T04:14:04;91355.88;;;5.35;100.00
9935;BME280;5006;41.828;23.478;2023-12-28T04:15:10;91350.72;;;5.51;100.00
9935;BME280;5006;41.828;23.478;2023-12-28T04:16:16;91356.69;;;5.48;100.00
9935;BME280;5006;41.828;23.478;2023-12-28T04:17:22;91354.09;;;5.27;100.00
9935;BME280;5006;41.828;23.478;2023-12-28T04:18:28;91342.25;;;5.25;100.00
9935;BME280;5006;41.828;23.478;2023-12-28T04:19:34;91352.00;;;5.33;100.00
9935;BME280;5006;41.828;23.478;2023-12-28T04:20:42;91354.66;;;5.33;100.00
9935;BME280;5006;41.828;23.478;2023-12-28T04:21:50;91349.13;;;5.38;100.00
9935;BME280;5006;41.828;23.478;2023-12-28T04:22:56;91355.84;;;5.23;100.00
9935;BME280;5006;41.828;23.478;2023-12-28T04:24:03;91354.22;;;5.31;100.00
9935;BME280;5006;41.828;23.478;2023-12-28T04:25:08;91356.78;;;5.39;100.00
9935;BME280;5006;41.828;23.478;2023-12-28T04:26:18;91351.81;;;5.38;100.00
9935;BME280;5006;41.828;23.478;2023-12-28T04:27:24;91362.75;;;4.71;100.00
9935;BME280;5006;41.828;23.478;2023-12-28T04:28:31;91353.63;;;4.93;100.00
9935;BME280;5006;41.828;23.478;2023-12-28T04:29:41;91359.31;;;4.50;100.00
9935;BME280;5006;41.828;23.478;2023-12-28T04:30:47;91354.72;;;4.39;100.00
9935;BME280;5006;41.828;23.478;2023-12-28T04:31:54;91360.53;;;4.32;100.00
9935;BME280;5006;41.828;23.478;2023-12-28T04:33:01;91373.94;;;4.77;100.00
9935;BME280;5006;41.828;23.478;2023-12-28T04:34:06;91375.69;;;4.93;100.00
9935;BME280;5006;41.828;23.478;2023-12-28T04:35:13;91371.22;;;4.85;100.00
9935;BME280;5006;41.828;23.478;2023-12-28T04:36:18;91372.72;;;4.54;100.00
9935;BME280;5006;41.828;23.478;2023-12-28T04:37:25;91370.72;;;4.71;100.00
9935;BME280;5006;41.828;23.478;2023-12-28T04:38:31;91373.38;;;4.71;100.00
9935;BME280;5006;41.828;23.478;2023-12-28T04:39:38;91375.50;;;4.78;100.00
9935;BME280;5006;41.828;23.478;2023-12-28T04:40:43;91372.16;;;5.01;100.00
9935;BME280;5006;41.828;23.478;2023-12-28T04:41:50;91369.72;;;4.96;100.00
9935;BME280;5006;41.828;23.478;2023-12-28T04:42:55;91374.03;;;4.68;100.00
9935;BME280;5006;41.828;23.478;2023-12-28T04:44:01;91373.75;;;4.61;100.00
9935;BME280;5006;41.828;23.478;2023-12-28T04:45:10;91377.22;;;4.33;100.00
9935;BME280;5006;41.828;23.478;2023-12-28T04:46:16;91372.84;;;4.37;100.00
9935;BME280;5006;41.828;23.478;2023-12-28T04:47:21;91368.25;;;4.66;100.00
9935;BME280;5006;41.828;23.478;2023-12-28T04:48:27;91370.25;;;4.69;100.00
9935;BME280;5006;41.828;23.478;2023-12-28T04:49:32;91371.41;;;5.01;100.00
9935;BME280;5006;41.828;23.478;2023-12-28T04:50:38;91363.47;;;5.13;100.00
9935;BME280;5006;41.828;23.478;2023-12-28T04:51:44;91362.53;;;4.76;100.00
9935;BME280;5006;41.828;23.478;2023-12-28T04:52:51;91359.47;;;4.86;100.00
9935;BME280;5006;41.828;23.478;2023-12-28T04:53:57;91364.50;;;4.67;100.00
9935;BME280;5006;41.828;23.478;2023-12-28T04:55:04;91369.91;;;4.71;100.00
9935;BME280;5006;41.828;23.478;2023-12-28T04:56:09;91366.75;;;4.57;100.00
9935;BME280;5006;41.828;23.478;2023-12-28T04:57:15;91364.31;;;5.05;100.00
9935;BME280;5006;41.828;23.478;2023-12-28T04:58:20;91366.16;;;5.25;100.00
9935;BME280;5006;41.828;23.478;2023-12-28T04:59:26;91367.59;;;5.22;100.00
9935;BME280;5006;41.828;23.478;2023-12-28T05:00:35;91370.47;;;5.29;100.00
9935;BME280;5006;41.828;23.478;2023-12-28T05:01:41;91366.31;;;5.08;100.00
9935;BME280;5006;41.828;23.478;2023-12-28T05:02:46;91371.00;;;5.23;100.00
9935;BME280;5006;41.828;23.478;2023-12-28T05:03:53;91365.28;;;5.00;100.00
9935;BME280;5006;41.828;23.478;2023-12-28T05:05:01;91369.09;;;4.38;100.00
9935;BME280;5006;41.828;23.478;2023-12-28T05:06:07;91369.81;;;4.67;100.00
9935;BME280;5006;41.828;23.478;2023-12-28T05:07:12;91362.59;;;4.88;100.00
9935;BME280;5006;41.828;23.478;2023-12-28T05:08:18;91361.88;;;4.38;100.00
9935;BME280;5006;41.828;23.478;2023-12-28T05:09:23;91364.44;;;4.35;100.00
9935;BME280;5006;41.828;23.478;2023-12-28T05:10:29;91366.28;;;4.75;100.00
9935;BME280;5006;41.828;23.478;2023-12-28T05:11:34;91364.66;;;4.83;100.00
9935;BME280;5006;41.828;23.478;2023-12-28T05:12:40;91365.09;;;5.05;100.00
9935;BME280;5006;41.828;23.478;2023-12-28T05:13:46;91371.22;;;5.18;100.00
9935;BME280;5006;41.828;23.478;2023-12-28T05:14:52;91364.69;;;5.15;100.00
9935;BME280;5006;41.828;23.478;2023-12-28T05:15:59;91364.16;;;5.22;100.00
9935;BME280;5006;41.828;23.478;2023-12-28T05:17:06;91367.81;;;4.97;100.00
9935;BME280;5006;41.828;23.478;2023-12-28T05:18:11;91362.44;;;5.05;100.00
9935;BME280;5006;41.828;23.478;2023-12-28T05:19:18;91360.31;;;4.99;100.00
9935;BME280;5006;41.828;23.478;2023-12-28T05:20:23;91367.78;;;5.05;100.00
9935;BME280;5006;41.828;23.478;2023-12-28T05:21:30;91363.97;;;4.94;100.00
9935;BME280;5006;41.828;23.478;2023-12-28T05:22:35;91363.34;;;5.09;100.00
9935;BME280;5006;41.828;23.478;2023-12-28T05:23:41;91360.56;;;5.06;100.00
9935;BME280;5006;41.828;23.478;2023-12-28T05:24:46;91357.84;;;5.26;100.00
9935;BME280;5006;41.828;23.478;2023-12-28T05:25:53;91360.47;;;5.14;100.00
9935;BME280;5006;41.828;23.478;2023-12-28T05:26:58;91362.31;;;5.34;100.00
9935;BME280;5006;41.828;23.478;2023-12-28T05:28:04;91360.59;;;5.18;100.00
9935;BME280;5006;41.828;23.478;2023-12-28T05:29:10;91366.63;;;5.27;100.00
9935;BME280;5006;41.828;23.478;2023-12-28T05:30:15;91360.56;;;5.06;100.00
9935;BME280;5006;41.828;23.478;2023-12-28T05:31:24;91375.16;;;5.00;100.00
9935;BME280;5006;41.828;23.478;2023-12-28T05:32:30;91361.72;;;4.14;100.00
9935;BME280;5006;41.828;23.478;2023-12-28T05:33:36;91367.47;;;4.25;100.00
9935;BME280;5006;41.828;23.478;2023-12-28T05:34:42;91368.81;;;4.51;100.00
9935;BME280;5006;41.828;23.478;2023-12-28T05:35:48;91368.44;;;4.61;100.00
9935;BME280;5006;41.828;23.478;2023-12-28T05:36:53;91365.19;;;4.35;100.00
9935;BME280;5006;41.828;23.478;2023-12-28T05:37:59;91370.69;;;4.92;100.00
9935;BME280;5006;41.828;23.478;2023-12-28T05:39:04;91375.44;;;4.86;100.00
9935;BME280;5006;41.828;23.478;2023-12-28T05:40:12;91380.66;;;4.95;100.00
9935;BME280;5006;41.828;23.478;2023-12-28T05:41:17;91386.81;;;5.07;100.00
9935;BME280;5006;41.828;23.478;2023-12-28T05:42:24;91381.09;;;4.97;100.00
9935;BME280;5006;41.828;23.478;2023-12-28T05:43:30;91380.47;;;5.00;100.00
9935;BME280;5006;41.828;23.478;2023-12-28T05:44:37;91383.97;;;4.92;100.00
9935;BME280;5006;41.828;23.478;2023-12-28T05:45:42;91384.59;;;5.09;100.00
9935;BME280;5006;41.828;23.478;2023-12-28T05:46:49;91374.69;;;5.18;100.00
9935;BME280;5006;41.828;23.478;2023-12-28T05:47:54;91382.88;;;4.93;100.00
9935;BME280;5006;41.828;23.478;2023-12-28T05:49:00;91384.22;;;4.78;100.00
9935;BME280;5006;41.828;23.478;2023-12-28T05:50:06;91373.88;;;4.85;100.00
9935;BME280;5006;41.828;23.478;2023-12-28T05:51:13;91374.13;;;4.92;100.00
9935;BME280;5006;41.828;23.478;2023-12-28T05:52:18;91376.94;;;5.08;100.00
9935;BME280;5006;41.828;23.478;2023-12-28T05:53:26;91380.47;;;5.00;100.00
9935;BME280;5006;41.828;23.478;2023-12-28T05:54:32;91373.66;;;5.11;100.00
9935;BME280;5006;41.828;23.478;2023-12-28T05:55:39;91369.94;;;5.03;100.00
9935;BME280;5006;41.828;23.478;2023-12-28T05:56:45;91387.75;;;4.91;100.00
9935;BME280;5006;41.828;23.478;2023-12-28T05:57:51;91380.22;;;4.93;100.00